sensor_id;sensor_type;location;lat;lon;timestamp;P1;durP1;ratioP1;P2;durP2;ratioP2
1328;SDS011;658;48.820;9.354;2024-02-15T00:03:59;0.70;;;0.60;;
1328;SDS011;658;48.820;9.354;2024-02-15T00:08:00;0.70;;;0.70;;
1328;SDS011;658;48.820;9.354;2024-02-15T00:12:04;0.87;;;0.87;;
1328;SDS011;658;48.820;9.354;2024-02-15T00:16:05;1.97;;;0.90;;
1328;SDS011;658;48.820;9.354;2024-02-15T00:20:06;0.77;;;0.70;;
1328;SDS011;658;48.820;9.354;2024-02-15T00:24:09;0.73;;;0.73;;
1328;SDS011;658;48.820;9.354;2024-02-15T00:28:10;0.80;;;0.80;;
1328;SDS011;658;48.820;9.354;2024-02-15T00:32:12;1.00;;;0.90;;
1328;SDS011;658;48.820;9.354;2024-02-15T00:36:13;0.80;;;0.80;;
1328;SDS011;658;48.820;9.354;2024-02-15T00:40:14;0.80;;;0.80;;
1328;SDS011;658;48.820;9.354;2024-02-15T00:44:14;0.77;;;0.77;;
1328;SDS011;658;48.820;9.354;2024-02-15T00:48:15;0.93;;;0.80;;
1328;SDS011;658;48.820;9.354;2024-02-15T00:52:16;0.83;;;0.70;;
1328;SDS011;658;48.820;9.354;2024-02-15T00:56:19;0.63;;;0.63;;
1328;SDS011;658;48.820;9.354;2024-02-15T01:00:20;0.83;;;0.83;;
1328;SDS011;658;48.820;9.354;2024-02-15T01:04:20;0.80;;;0.80;;
1328;SDS011;658;48.820;9.354;2024-02-15T01:08:21;0.60;;;0.60;;
1328;SDS011;658;48.820;9.354;2024-02-15T01:12:22;0.70;;;0.70;;
1328;SDS011;658;48.820;9.354;2024-02-15T01:16:23;0.70;;;0.63;;
1328;SDS011;658;48.820;9.354;2024-02-15T01:20:27;0.60;;;0.60;;
1328;SDS011;658;48.820;9.354;2024-02-15T01:24:27;0.97;;;0.87;;
1328;SDS011;658;48.820;9.354;2024-02-15T01:28:28;0.97;;;0.87;;
1328;SDS011;658;48.820;9.354;2024-02-15T01:32:28;0.70;;;0.70;;
1328;SDS011;658;48.820;9.354;2024-02-15T01:36:29;0.80;;;0.80;;
1328;SDS011;658;48.820;9.354;2024-02-15T01:40:30;1.03;;;0.87;;
1328;SDS011;658;48.820;9.354;2024-02-15T01:44:31;0.67;;;0.67;;
1328;SDS011;658;48.820;9.354;2024-02-15T01:48:37;0.60;;;0.60;;
1328;SDS011;658;48.820;9.354;2024-02-15T01:52:41;0.60;;;0.60;;
1328;SDS011;658;48.820;9.354;2024-02-15T01:56:47;1.00;;;0.80;;
1328;SDS011;658;48.820;9.354;2024-02-15T02:00:48;0.73;;;0.73;;
1328;SDS011;658;48.820;9.354;2024-02-15T02:04:48;0.60;;;0.60;;
1328;SDS011;658;48.820;9.354;2024-02-15T02:08:50;0.90;;;0.90;;
1328;SDS011;658;48.820;9.354;2024-02-15T02:12:50;0.70;;;0.70;;
1328;SDS011;658;48.820;9.354;2024-02-15T02:16:51;0.80;;;0.80;;
1328;SDS011;658;48.820;9.354;2024-02-15T02:20:51;0.77;;;0.77;;
1328;SDS011;658;48.820;9.354;2024-02-15T02:28:59;0.70;;;0.70;;
1328;SDS011;658;48.820;9.354;2024-02-15T02:33:00;0.97;;;0.70;;
1328;SDS011;658;48.820;9.354;2024-02-15T02:37:01;0.80;;;0.80;;
1328;SDS011;658;48.820;9.354;2024-02-15T02:41:07;0.70;;;0.70;;
1328;SDS011;658;48.820;9.354;2024-02-15T02:45:08;1.03;;;0.90;;
1328;SDS011;658;48.820;9.354;2024-02-15T02:49:08;0.70;;;0.70;;
1328;SDS011;658;48.820;9.354;2024-02-15T02:53:09;0.63;;;0.63;;
1328;SDS011;658;48.820;9.354;2024-02-15T02:57:10;0.60;;;0.60;;
1328;SDS011;658;48.820;9.354;2024-02-15T03:01:11;0.70;;;0.67;;
1328;SDS011;658;48.820;9.354;2024-02-15T03:05:14;0.70;;;0.70;;
1328;SDS011;658;48.820;9.354;2024-02-15T03:09:15;0.97;;;0.90;;
1328;SDS011;658;48.820;9.354;2024-02-15T03:13:15;0.90;;;0.83;;
1328;SDS011;658;48.820;9.354;2024-02-15T03:17:19;0.70;;;0.70;;
1328;SDS011;658;48.820;9.354;2024-02-15T03:21:20;1.07;;;0.60;;
1328;SDS011;658;48.820;9.354;2024-02-15T03:25:20;0.60;;;0.60;;
1328;SDS011;658;48.820;9.354;2024-02-15T03:29:24;0.60;;;0.60;;
1328;SDS011;658;48.820;9.354;2024-02-15T03:33:25;0.77;;;0.77;;
1328;SDS011;658;48.820;9.354;2024-02-15T03:37:28;0.63;;;0.60;;
1328;SDS011;658;48.820;9.354;2024-02-15T03:41:29;0.60;;;0.60;;
1328;SDS011;658;48.820;9.354;2024-02-15T03:45:32;0.70;;;0.70;;
1328;SDS011;658;48.820;9.354;2024-02-15T03:49:33;0.77;;;0.77;;
1328;SDS011;658;48.820;9.354;2024-02-15T03:53:33;0.50;;;0.50;;
1328;SDS011;658;48.820;9.354;2024-02-15T03:57:40;0.90;;;0.60;;
1328;SDS011;658;48.820;9.354;2024-02-15T04:01:40;0.80;;;0.80;;
1328;SDS011;658;48.820;9.354;2024-02-15T04:05:41;0.70;;;0.70;;
1328;SDS011;658;48.820;9.354;2024-02-15T04:09:42;0.73;;;0.70;;
1328;SDS011;658;48.820;9.354;2024-02-15T04:13:43;0.70;;;0.70;;
1328;SDS011;658;48.820;9.354;2024-02-15T04:17:43;1.00;;;0.83;;
1328;SDS011;658;48.820;9.354;2024-02-15T04:21:47;0.60;;;0.60;;
1328;SDS011;658;48.820;9.354;2024-02-15T04:25:48;1.10;;;1.00;;
1328;SDS011;658;48.820;9.354;2024-02-15T04:29:51;0.53;;;0.50;;
1328;SDS011;658;48.820;9.354;2024-02-15T04:33:54;0.83;;;0.80;;
1328;SDS011;658;48.820;9.354;2024-02-15T04:37:55;0.90;;;0.80;;
1328;SDS011;658;48.820;9.354;2024-02-15T04:41:58;0.70;;;0.70;;
1328;SDS011;658;48.820;9.354;2024-02-15T04:45:59;0.70;;;0.70;;
1328;SDS011;658;48.820;9.354;2024-02-15T04:50:00;0.90;;;0.90;;
1328;SDS011;658;48.820;9.354;2024-02-15T04:54:02;0.60;;;0.60;;
1328;SDS011;658;48.820;9.354;2024-02-15T04:58:03;0.80;;;0.80;;
1328;SDS011;658;48.820;9.354;2024-02-15T05:02:04;0.77;;;0.77;;
1328;SDS011;658;48.820;9.354;2024-02-15T05:06:05;0.70;;;0.70;;
1328;SDS011;658;48.820;9.354;2024-02-15T05:10:08;1.07;;;1.00;;
1328;SDS011;658;48.820;9.354;2024-02-15T05:14:08;0.70;;;0.70;;
1328;SDS011;658;48.820;9.354;2024-02-15T05:18:13;0.97;;;0.90;;
1328;SDS011;658;48.820;9.354;2024-02-15T05:22:13;0.70;;;0.70;;
1328;SDS011;658;48.820;9.354;2024-02-15T05:26:15;0.80;;;0.80;;
1328;SDS011;658;48.820;9.354;2024-02-15T05:30:23;1.17;;;0.90;;
1328;SDS011;658;48.820;9.354;2024-02-15T05:34:25;0.70;;;0.70;;
1328;SDS011;658;48.820;9.354;2024-02-15T05:38:25;0.87;;;0.87;;
1328;SDS011;658;48.820;9.354;2024-02-15T05:42:29;0.70;;;0.70;;
1328;SDS011;658;48.820;9.354;2024-02-15T05:46:30;1.23;;;0.93;;
1328;SDS011;658;48.820;9.354;2024-02-15T05:50:31;0.90;;;0.90;;
1328;SDS011;658;48.820;9.354;2024-02-15T05:54:31;1.30;;;0.90;;
1328;SDS011;658;48.820;9.354;2024-02-15T05:58:32;0.80;;;0.80;;
1328;SDS011;658;48.820;9.354;2024-02-15T06:02:33;1.00;;;1.00;;
1328;SDS011;658;48.820;9.354;2024-02-15T06:06:34;1.20;;;1.10;;
1328;SDS011;658;48.820;9.354;2024-02-15T06:10:35;1.03;;;1.00;;
1328;SDS011;658;48.820;9.354;2024-02-15T06:14:35;1.13;;;1.00;;
1328;SDS011;658;48.820;9.354;2024-02-15T06:18:36;1.20;;;0.90;;
1328;SDS011;658;48.820;9.354;2024-02-15T06:22:38;0.80;;;0.80;;
1328;SDS011;658;48.820;9.354;2024-02-15T06:26:39;0.90;;;0.90;;
1328;SDS011;658;48.820;9.354;2024-02-15T06:30:40;1.00;;;1.00;;
1328;SDS011;658;48.820;9.354;2024-02-15T06:34:59;0.90;;;0.90;;
1328;SDS011;658;48.820;9.354;2024-02-15T06:39:18;3.60;;;1.23;;
1328;SDS011;658;48.820;9.354;2024-02-15T06:43:37;1.10;;;1.00;;
1328;SDS011;658;48.820;9.354;2024-02-15T06:47:43;1.93;;;1.00;;
1328;SDS011;658;48.820;9.354;2024-02-15T06:51:44;1.23;;;1.00;;
1328;SDS011;658;48.820;9.354;2024-02-15T06:55:47;1.00;;;1.00;;
1328;SDS011;658;48.820;9.354;2024-02-15T06:59:51;1.20;;;1.10;;
1328;SDS011;658;48.820;9.354;2024-02-15T07:03:51;1.33;;;0.87;;
1328;SDS011;658;48.820;9.354;2024-02-15T07:07:52;1.70;;;1.30;;
1328;SDS011;658;48.820;9.354;2024-02-15T07:11:53;1.10;;;1.00;;
1328;SDS011;658;48.820;9.354;2024-02-15T07:15:53;1.30;;;1.20;;
1328;SDS011;658;48.820;9.354;2024-02-15T07:19:59;1.50;;;0.83;;
1328;SDS011;658;48.820;9.354;2024-02-15T07:23:59;1.10;;;1.10;;
1328;SDS011;658;48.820;9.354;2024-02-15T07:28:00;1.10;;;1.00;;
1328;SDS011;658;48.820;9.354;2024-02-15T07:32:01;1.00;;;1.00;;
1328;SDS011;658;48.820;9.354;2024-02-15T07:36:04;1.73;;;1.60;;
1328;SDS011;658;48.820;9.354;2024-02-15T07:40:05;3.77;;;2.80;;
1328;SDS011;658;48.820;9.354;2024-02-15T07:44:08;2.70;;;2.47;;
1328;SDS011;658;48.820;9.354;2024-02-15T07:48:11;2.70;;;2.23;;
1328;SDS011;658;48.820;9.354;2024-02-15T07:52:14;2.37;;;2.17;;
1328;SDS011;658;48.820;9.354;2024-02-15T07:56:15;2.07;;;1.87;;
1328;SDS011;658;48.820;9.354;2024-02-15T08:00:17;4.20;;;2.10;;
1328;SDS011;658;48.820;9.354;2024-02-15T08:04:19;2.13;;;2.03;;
1328;SDS011;658;48.820;9.354;2024-02-15T08:08:21;2.00;;;1.90;;
1328;SDS011;658;48.820;9.354;2024-02-15T08:12:21;2.10;;;1.90;;
1328;SDS011;658;48.820;9.354;2024-02-15T08:16:22;1.90;;;1.80;;
1328;SDS011;658;48.820;9.354;2024-02-15T08:20:23;2.30;;;2.10;;
1328;SDS011;658;48.820;9.354;2024-02-15T08:24:23;2.20;;;2.00;;
1328;SDS011;658;48.820;9.354;2024-02-15T08:28:24;1.83;;;1.63;;
1328;SDS011;658;48.820;9.354;2024-02-15T08:32:25;1.70;;;1.60;;
1328;SDS011;658;48.820;9.354;2024-02-15T08:36:25;2.90;;;1.80;;
1328;SDS011;658;48.820;9.354;2024-02-15T08:40:26;3.20;;;1.70;;
1328;SDS011;658;48.820;9.354;2024-02-15T08:44:27;3.97;;;2.13;;
1328;SDS011;658;48.820;9.354;2024-02-15T08:48:28;3.10;;;1.80;;
1328;SDS011;658;48.820;9.354;2024-02-15T08:52:30;2.67;;;1.87;;
1328;SDS011;658;48.820;9.354;2024-02-15T08:56:35;2.13;;;1.90;;
1328;SDS011;658;48.820;9.354;2024-02-15T09:00:38;1.80;;;1.70;;
1328;SDS011;658;48.820;9.354;2024-02-15T09:04:44;3.53;;;1.93;;
1328;SDS011;658;48.820;9.354;2024-02-15T09:08:45;2.00;;;1.90;;
1328;SDS011;658;48.820;9.354;2024-02-15T09:12:46;3.27;;;1.90;;
1328;SDS011;658;48.820;9.354;2024-02-15T09:16:48;2.50;;;1.63;;
1328;SDS011;658;48.820;9.354;2024-02-15T09:20:49;2.30;;;1.73;;
1328;SDS011;658;48.820;9.354;2024-02-15T09:24:55;2.97;;;2.10;;
1328;SDS011;658;48.820;9.354;2024-02-15T09:28:55;2.40;;;1.80;;
1328;SDS011;658;48.820;9.354;2024-02-15T09:32:56;3.50;;;1.80;;
1328;SDS011;658;48.820;9.354;2024-02-15T09:36:57;1.80;;;1.37;;
1328;SDS011;658;48.820;9.354;2024-02-15T09:40:57;1.70;;;1.60;;
1328;SDS011;658;48.820;9.354;2024-02-15T09:45:16;1.33;;;1.23;;
1328;SDS011;658;48.820;9.354;2024-02-15T09:49:18;2.33;;;2.10;;
1328;SDS011;658;48.820;9.354;2024-02-15T09:53:21;2.50;;;1.57;;
1328;SDS011;658;48.820;9.354;2024-02-15T09:57:29;3.33;;;1.80;;
1328;SDS011;658;48.820;9.354;2024-02-15T10:01:32;1.70;;;1.60;;
1328;SDS011;658;48.820;9.354;2024-02-15T10:05:35;1.70;;;1.60;;
1328;SDS011;658;48.820;9.354;2024-02-15T10:09:36;1.73;;;1.50;;
1328;SDS011;658;48.820;9.354;2024-02-15T10:13:39;2.40;;;1.30;;
1328;SDS011;658;48.820;9.354;2024-02-15T10:17:41;2.40;;;1.70;;
1328;SDS011;658;48.820;9.354;2024-02-15T10:21:41;1.83;;;1.60;;
1328;SDS011;658;48.820;9.354;2024-02-15T10:25:42;1.70;;;1.60;;
1328;SDS011;658;48.820;9.354;2024-02-15T10:29:45;2.30;;;1.20;;
1328;SDS011;658;48.820;9.354;2024-02-15T10:33:48;1.60;;;1.33;;
1328;SDS011;658;48.820;9.354;2024-02-15T10:37:48;1.37;;;1.27;;
1328;SDS011;658;48.820;9.354;2024-02-15T10:41:53;3.47;;;1.40;;
1328;SDS011;658;48.820;9.354;2024-02-15T10:45:54;1.63;;;1.30;;
1328;SDS011;658;48.820;9.354;2024-02-15T10:49:57;2.00;;;1.27;;
1328;SDS011;658;48.820;9.354;2024-02-15T10:53:59;2.47;;;1.50;;
1328;SDS011;658;48.820;9.354;2024-02-15T10:58:05;1.20;;;1.10;;
1328;SDS011;658;48.820;9.354;2024-02-15T11:06:42;1.33;;;1.10;;
1328;SDS011;658;48.820;9.354;2024-02-15T11:10:44;1.10;;;1.00;;
1328;SDS011;658;48.820;9.354;2024-02-15T11:14:45;1.60;;;1.23;;
1328;SDS011;658;48.820;9.354;2024-02-15T11:18:49;1.50;;;1.17;;
1328;SDS011;658;48.820;9.354;2024-02-15T11:23:00;1.00;;;1.00;;
1328;SDS011;658;48.820;9.354;2024-02-15T11:27:04;1.50;;;1.40;;
1328;SDS011;658;48.820;9.354;2024-02-15T11:31:07;0.80;;;0.80;;
1328;SDS011;658;48.820;9.354;2024-02-15T11:35:19;1.03;;;0.97;;
1328;SDS011;658;48.820;9.354;2024-02-15T11:39:41;1.13;;;1.00;;
1328;SDS011;658;48.820;9.354;2024-02-15T11:43:47;1.10;;;1.00;;
1328;SDS011;658;48.820;9.354;2024-02-15T11:47:56;1.10;;;0.80;;
1328;SDS011;658;48.820;9.354;2024-02-15T11:51:56;1.10;;;1.10;;
1328;SDS011;658;48.820;9.354;2024-02-15T11:56:09;2.07;;;1.00;;
1328;SDS011;658;48.820;9.354;2024-02-15T12:00:24;2.00;;;1.03;;
1328;SDS011;658;48.820;9.354;2024-02-15T12:04:44;0.80;;;0.80;;
1328;SDS011;658;48.820;9.354;2024-02-15T12:09:04;0.90;;;0.90;;
1328;SDS011;658;48.820;9.354;2024-02-15T12:13:23;0.60;;;0.60;;
1328;SDS011;658;48.820;9.354;2024-02-15T12:18:15;1.00;;;1.00;;
1328;SDS011;658;48.820;9.354;2024-02-15T12:22:37;0.80;;;0.80;;
1328;SDS011;658;48.820;9.354;2024-02-15T12:26:41;1.00;;;0.93;;
1328;SDS011;658;48.820;9.354;2024-02-15T12:30:42;0.77;;;0.77;;
1328;SDS011;658;48.820;9.354;2024-02-15T12:34:44;0.80;;;0.60;;
1328;SDS011;658;48.820;9.354;2024-02-15T12:38:57;0.90;;;0.90;;
1328;SDS011;658;48.820;9.354;2024-02-15T12:42:59;0.80;;;0.80;;
1328;SDS011;658;48.820;9.354;2024-02-15T12:47:00;0.83;;;0.80;;
1328;SDS011;658;48.820;9.354;2024-02-15T12:51:12;1.00;;;1.00;;
1328;SDS011;658;48.820;9.354;2024-02-15T12:55:17;0.80;;;0.70;;
1328;SDS011;658;48.820;9.354;2024-02-15T12:59:21;0.97;;;0.97;;
1328;SDS011;658;48.820;9.354;2024-02-15T13:03:24;0.73;;;0.73;;
1328;SDS011;658;48.820;9.354;2024-02-15T13:07:25;0.90;;;0.80;;
1328;SDS011;658;48.820;9.354;2024-02-15T13:11:26;0.80;;;0.80;;
1328;SDS011;658;48.820;9.354;2024-02-15T13:15:28;1.43;;;0.90;;
1328;SDS011;658;48.820;9.354;2024-02-15T13:19:32;1.20;;;0.93;;
1328;SDS011;658;48.820;9.354;2024-02-15T13:23:36;1.67;;;1.20;;
1328;SDS011;658;48.820;9.354;2024-02-15T13:27:38;2.37;;;1.30;;
1328;SDS011;658;48.820;9.354;2024-02-15T13:31:39;1.27;;;1.13;;
1328;SDS011;658;48.820;9.354;2024-02-15T13:35:41;1.57;;;1.33;;
1328;SDS011;658;48.820;9.354;2024-02-15T13:39:42;1.33;;;1.10;;
1328;SDS011;658;48.820;9.354;2024-02-15T13:43:45;3.07;;;1.07;;
1328;SDS011;658;48.820;9.354;2024-02-15T13:47:46;2.10;;;1.10;;
1328;SDS011;658;48.820;9.354;2024-02-15T13:51:47;2.57;;;1.37;;
1328;SDS011;658;48.820;9.354;2024-02-15T13:55:49;1.20;;;1.10;;
1328;SDS011;658;48.820;9.354;2024-02-15T13:59:52;1.10;;;0.93;;
1328;SDS011;658;48.820;9.354;2024-02-15T14:03:53;0.93;;;0.93;;
1328;SDS011;658;48.820;9.354;2024-02-15T14:07:57;1.70;;;0.90;;
1328;SDS011;658;48.820;9.354;2024-02-15T14:11:58;1.83;;;1.30;;
1328;SDS011;658;48.820;9.354;2024-02-15T14:16:01;2.00;;;1.00;;
1328;SDS011;658;48.820;9.354;2024-02-15T14:20:03;1.03;;;1.03;;
1328;SDS011;658;48.820;9.354;2024-02-15T14:24:08;2.07;;;1.30;;
1328;SDS011;658;48.820;9.354;2024-02-15T14:28:09;1.10;;;0.90;;
1328;SDS011;658;48.820;9.354;2024-02-15T14:32:12;2.10;;;1.30;;
1328;SDS011;658;48.820;9.354;2024-02-15T14:36:32;2.20;;;1.40;;
1328;SDS011;658;48.820;9.354;2024-02-15T14:40:42;0.87;;;0.70;;
1328;SDS011;658;48.820;9.354;2024-02-15T14:44:57;0.87;;;0.87;;
1328;SDS011;658;48.820;9.354;2024-02-15T14:48:58;1.40;;;1.10;;
1328;SDS011;658;48.820;9.354;2024-02-15T14:52:58;1.27;;;0.93;;
1328;SDS011;658;48.820;9.354;2024-02-15T14:57:01;1.00;;;1.00;;
1328;SDS011;658;48.820;9.354;2024-02-15T15:01:02;1.00;;;0.90;;
1328;SDS011;658;48.820;9.354;2024-02-15T15:05:02;0.83;;;0.83;;
1328;SDS011;658;48.820;9.354;2024-02-15T15:09:22;1.73;;;0.80;;
1328;SDS011;658;48.820;9.354;2024-02-15T15:13:41;1.07;;;0.97;;
1328;SDS011;658;48.820;9.354;2024-02-15T15:17:42;1.10;;;1.00;;
1328;SDS011;658;48.820;9.354;2024-02-15T15:21:42;0.83;;;0.80;;
1328;SDS011;658;48.820;9.354;2024-02-15T15:25:46;0.90;;;0.90;;
1328;SDS011;658;48.820;9.354;2024-02-15T15:29:47;1.20;;;0.90;;
1328;SDS011;658;48.820;9.354;2024-02-15T15:33:47;0.90;;;0.90;;
1328;SDS011;658;48.820;9.354;2024-02-15T15:37:52;0.90;;;0.90;;
1328;SDS011;658;48.820;9.354;2024-02-15T15:41:57;0.87;;;0.80;;
1328;SDS011;658;48.820;9.354;2024-02-15T15:46:00;0.70;;;0.70;;
1328;SDS011;658;48.820;9.354;2024-02-15T15:50:01;2.30;;;0.80;;
1328;SDS011;658;48.820;9.354;2024-02-15T15:54:06;1.03;;;0.93;;
1328;SDS011;658;48.820;9.354;2024-02-15T15:58:07;0.80;;;0.80;;
1328;SDS011;658;48.820;9.354;2024-02-15T16:02:07;0.90;;;0.90;;
1328;SDS011;658;48.820;9.354;2024-02-15T16:06:08;0.83;;;0.83;;
1328;SDS011;658;48.820;9.354;2024-02-15T16:10:08;0.87;;;0.80;;
1328;SDS011;658;48.820;9.354;2024-02-15T16:14:12;0.60;;;0.60;;
1328;SDS011;658;48.820;9.354;2024-02-15T16:18:13;1.20;;;0.90;;
1328;SDS011;658;48.820;9.354;2024-02-15T16:22:14;0.70;;;0.70;;
1328;SDS011;658;48.820;9.354;2024-02-15T16:26:14;0.70;;;0.60;;
1328;SDS011;658;48.820;9.354;2024-02-15T16:30:16;1.00;;;0.90;;
1328;SDS011;658;48.820;9.354;2024-02-15T16:34:16;0.70;;;0.70;;
1328;SDS011;658;48.820;9.354;2024-02-15T16:38:17;1.00;;;0.90;;
1328;SDS011;658;48.820;9.354;2024-02-15T16:42:18;1.60;;;0.90;;
1328;SDS011;658;48.820;9.354;2024-02-15T16:46:19;1.30;;;1.20;;
1328;SDS011;658;48.820;9.354;2024-02-15T16:50:23;3.83;;;1.70;;
1328;SDS011;658;48.820;9.354;2024-02-15T16:54:24;2.23;;;2.03;;
1328;SDS011;658;48.820;9.354;2024-02-15T16:58:25;5.50;;;2.50;;
1328;SDS011;658;48.820;9.354;2024-02-15T17:02:26;3.50;;;2.70;;
1328;SDS011;658;48.820;9.354;2024-02-15T17:06:29;2.17;;;1.80;;
1328;SDS011;658;48.820;9.354;2024-02-15T17:10:36;2.20;;;2.00;;
1328;SDS011;658;48.820;9.354;2024-02-15T17:14:39;2.93;;;2.03;;
1328;SDS011;658;48.820;9.354;2024-02-15T17:18:41;2.60;;;1.90;;
1328;SDS011;658;48.820;9.354;2024-02-15T17:22:44;1.37;;;1.23;;
1328;SDS011;658;48.820;9.354;2024-02-15T17:26:46;1.93;;;1.73;;
1328;SDS011;658;48.820;9.354;2024-02-15T17:30:48;2.90;;;1.57;;
1328;SDS011;658;48.820;9.354;2024-02-15T17:34:49;2.70;;;1.53;;
1328;SDS011;658;48.820;9.354;2024-02-15T17:38:50;1.60;;;1.50;;
1328;SDS011;658;48.820;9.354;2024-02-15T17:42:50;1.70;;;1.50;;
1328;SDS011;658;48.820;9.354;2024-02-15T17:46:51;1.53;;;1.30;;
1328;SDS011;658;48.820;9.354;2024-02-15T17:50:52;1.50;;;1.40;;
1328;SDS011;658;48.820;9.354;2024-02-15T17:54:53;1.93;;;1.73;;
1328;SDS011;658;48.820;9.354;2024-02-15T17:58:54;1.40;;;1.10;;
1328;SDS011;658;48.820;9.354;2024-02-15T18:02:54;2.03;;;1.60;;
1328;SDS011;658;48.820;9.354;2024-02-15T18:06:55;1.40;;;1.30;;
1328;SDS011;658;48.820;9.354;2024-02-15T18:10:56;1.70;;;1.60;;
1328;SDS011;658;48.820;9.354;2024-02-15T18:15:00;4.27;;;1.53;;
1328;SDS011;658;48.820;9.354;2024-02-15T18:19:00;1.27;;;1.17;;
1328;SDS011;658;48.820;9.354;2024-02-15T18:23:04;2.13;;;1.20;;
1328;SDS011;658;48.820;9.354;2024-02-15T18:27:05;1.57;;;1.33;;
1328;SDS011;658;48.820;9.354;2024-02-15T18:31:05;1.70;;;1.27;;
1328;SDS011;658;48.820;9.354;2024-02-15T18:35:09;1.10;;;1.00;;
1328;SDS011;658;48.820;9.354;2024-02-15T18:39:11;2.33;;;1.10;;
1328;SDS011;658;48.820;9.354;2024-02-15T18:43:12;1.70;;;1.00;;
1328;SDS011;658;48.820;9.354;2024-02-15T18:47:14;1.50;;;1.40;;
1328;SDS011;658;48.820;9.354;2024-02-15T18:51:17;1.40;;;1.30;;
1328;SDS011;658;48.820;9.354;2024-02-15T18:55:20;1.53;;;1.43;;
1328;SDS011;658;48.820;9.354;2024-02-15T18:59:21;1.20;;;1.10;;
1328;SDS011;658;48.820;9.354;2024-02-15T19:03:25;2.00;;;1.40;;
1328;SDS011;658;48.820;9.354;2024-02-15T19:07:26;1.47;;;1.37;;
1328;SDS011;658;48.820;9.354;2024-02-15T19:11:31;1.93;;;1.30;;
1328;SDS011;658;48.820;9.354;2024-02-15T19:20:41;1.43;;;1.23;;
1328;SDS011;658;48.820;9.354;2024-02-15T19:24:41;1.10;;;1.00;;
1328;SDS011;658;48.820;9.354;2024-02-15T19:28:42;1.87;;;1.10;;
1328;SDS011;658;48.820;9.354;2024-02-15T19:32:46;2.70;;;1.37;;
1328;SDS011;658;48.820;9.354;2024-02-15T19:37:08;1.50;;;1.40;;
1328;SDS011;658;48.820;9.354;2024-02-15T19:41:30;1.73;;;1.20;;
1328;SDS011;658;48.820;9.354;2024-02-15T19:45:31;1.27;;;1.17;;
1328;SDS011;658;48.820;9.354;2024-02-15T19:49:37;1.60;;;1.50;;
1328;SDS011;658;48.820;9.354;2024-02-15T19:53:38;1.43;;;1.10;;
1328;SDS011;658;48.820;9.354;2024-02-15T19:57:41;1.47;;;1.37;;
1328;SDS011;658;48.820;9.354;2024-02-15T20:01:42;1.77;;;1.40;;
1328;SDS011;658;48.820;9.354;2024-02-15T20:05:48;2.67;;;1.27;;
1328;SDS011;658;48.820;9.354;2024-02-15T20:09:54;1.43;;;1.33;;
1328;SDS011;658;48.820;9.354;2024-02-15T20:13:55;1.93;;;1.40;;
1328;SDS011;658;48.820;9.354;2024-02-15T20:17:57;3.30;;;1.40;;
1328;SDS011;658;48.820;9.354;2024-02-15T20:21:58;1.63;;;1.43;;
1328;SDS011;658;48.820;9.354;2024-02-15T20:25:59;1.23;;;1.13;;
1328;SDS011;658;48.820;9.354;2024-02-15T20:30:00;1.80;;;1.30;;
1328;SDS011;658;48.820;9.354;2024-02-15T20:34:01;2.13;;;1.93;;
1328;SDS011;658;48.820;9.354;2024-02-15T20:38:05;3.40;;;1.50;;
1328;SDS011;658;48.820;9.354;2024-02-15T20:42:06;1.70;;;1.30;;
1328;SDS011;658;48.820;9.354;2024-02-15T20:46:06;3.73;;;1.20;;
1328;SDS011;658;48.820;9.354;2024-02-15T20:50:09;3.97;;;2.30;;
1328;SDS011;658;48.820;9.354;2024-02-15T20:54:12;1.70;;;1.20;;
1328;SDS011;658;48.820;9.354;2024-02-15T20:58:15;2.90;;;1.50;;
1328;SDS011;658;48.820;9.354;2024-02-15T21:02:18;4.40;;;1.70;;
1328;SDS011;658;48.820;9.354;2024-02-15T21:06:20;2.00;;;1.80;;
1328;SDS011;658;48.820;9.354;2024-02-15T21:10:22;2.37;;;1.90;;
1328;SDS011;658;48.820;9.354;2024-02-15T21:14:22;1.43;;;1.20;;
1328;SDS011;658;48.820;9.354;2024-02-15T21:18:23;1.83;;;1.60;;
1328;SDS011;658;48.820;9.354;2024-02-15T21:22:26;1.90;;;1.47;;
1328;SDS011;658;48.820;9.354;2024-02-15T21:26:29;2.00;;;1.50;;
1328;SDS011;658;48.820;9.354;2024-02-15T21:30:30;1.57;;;1.47;;
1328;SDS011;658;48.820;9.354;2024-02-15T21:34:31;1.57;;;1.40;;
1328;SDS011;658;48.820;9.354;2024-02-15T21:38:31;1.80;;;1.70;;
1328;SDS011;658;48.820;9.354;2024-02-15T21:42:33;1.50;;;1.40;;
1328;SDS011;658;48.820;9.354;2024-02-15T21:46:34;1.47;;;1.37;;
1328;SDS011;658;48.820;9.354;2024-02-15T21:50:34;2.13;;;1.30;;
1328;SDS011;658;48.820;9.354;2024-02-15T21:54:37;3.47;;;1.50;;
1328;SDS011;658;48.820;9.354;2024-02-15T21:58:40;3.27;;;1.20;;
1328;SDS011;658;48.820;9.354;2024-02-15T22:02:41;2.63;;;1.60;;
1328;SDS011;658;48.820;9.354;2024-02-15T22:06:45;1.80;;;1.67;;
1328;SDS011;658;48.820;9.354;2024-02-15T22:10:46;2.80;;;1.93;;
1328;SDS011;658;48.820;9.354;2024-02-15T22:14:49;1.83;;;1.73;;
1328;SDS011;658;48.820;9.354;2024-02-15T22:18:51;1.40;;;1.30;;
1328;SDS011;658;48.820;9.354;2024-02-15T22:22:52;1.80;;;1.70;;
1328;SDS011;658;48.820;9.354;2024-02-15T22:26:54;1.63;;;1.53;;
1328;SDS011;658;48.820;9.354;2024-02-15T22:30:58;1.60;;;1.50;;
1328;SDS011;658;48.820;9.354;2024-02-15T22:34:58;1.60;;;1.50;;
1328;SDS011;658;48.820;9.354;2024-02-15T22:39:02;1.97;;;1.80;;
1328;SDS011;658;48.820;9.354;2024-02-15T22:43:03;1.40;;;1.30;;
1328;SDS011;658;48.820;9.354;2024-02-15T22:47:04;1.70;;;1.60;;
1328;SDS011;658;48.820;9.354;2024-02-15T22:51:04;1.70;;;1.60;;
1328;SDS011;658;48.820;9.354;2024-02-15T22:55:05;1.50;;;1.40;;
1328;SDS011;658;48.820;9.354;2024-02-15T22:59:06;1.50;;;1.40;;
1328;SDS011;658;48.820;9.354;2024-02-15T23:03:09;1.80;;;1.70;;
1328;SDS011;658;48.820;9.354;2024-02-15T23:07:09;2.23;;;2.03;;
1328;SDS011;658;48.820;9.354;2024-02-15T23:11:10;1.80;;;1.70;;
1328;SDS011;658;48.820;9.354;2024-02-15T23:15:11;1.57;;;1.47;;
1328;SDS011;658;48.820;9.354;2024-02-15T23:19:14;1.53;;;1.43;;
1328;SDS011;658;48.820;9.354;2024-02-15T23:23:16;1.80;;;1.70;;
1328;SDS011;658;48.820;9.354;2024-02-15T23:27:17;1.50;;;1.40;;
1328;SDS011;658;48.820;9.354;2024-02-15T23:31:17;1.50;;;1.40;;
1328;SDS011;658;48.820;9.354;2024-02-15T23:35:18;1.80;;;1.70;;
1328;SDS011;658;48.820;9.354;2024-02-15T23:39:19;2.03;;;1.80;;
1328;SDS011;658;48.820;9.354;2024-02-15T23:43:35;2.03;;;1.83;;
1328;SDS011;658;48.820;9.354;2024-02-15T23:47:38;1.80;;;1.63;;
1328;SDS011;658;48.820;9.354;2024-02-15T23:51:39;1.70;;;1.60;;
1328;SDS011;658;48.820;9.354;2024-02-15T23:55:45;1.87;;;1.70;;
1328;SDS011;658;48.820;9.354;2024-02-15T23:59:47;2.17;;;1.97;;
